Redcliffe Ses, Queensland

4:44 PM AEST on August 26, 2016 (GMT +1000)
margate | | Change Station

Elev 79 ft 27.24 °S, 153.10 °E | Updated 11 minutes ago

Scattered Clouds
Scattered Clouds
64.8 °F
Feels Like 64.8 °F
N
2.7
Wind Variable Wind from NNE

Today
High -- | Low -- °F
--% Chance of Precip.
Yesterday
High -- | Low -- °F
Precip. -- in
Pressure 29.95 in
Visibility 6.2 miles
Clouds Scattered Clouds 4000 ft
Dew Point 47 °F
Humidity 53%
Rainfall 0.00 in
Snow Depth Not available.
6:07 AM 5:31 PM
Last Quarter, 37% visible
METAR YBBN 260630Z 02004KT 9999 SCT040 18/06 Q1014
Pressure 29.95 in
Visibility 6.2 miles
Clouds Scattered Clouds 4000 ft
Dew Point 47 °F
Humidity 53%
Rainfall 0.00 in
Snow Depth Not available.
6:07 AM 5:31 PM
Last Quarter, 37% visible
METAR YBBN 260630Z 02004KT 9999 SCT040 18/06 Q1014

10-Day Weather Forecast

Almanac

Astronomy

Aug. 26, 2016 Rise Set
Actual Time
Civil Twilight
Nautical Twilight
Astronomical Twilight
Moon
Length of Visible Light
Length of Day
Tomorrow will be .
, % of the Moon is Illuminated

Today's Extremes

Country Highs Country Lows

Community

WunderPhotos

Upload Photos

1,935,063 photos uploaded!

WunderBlog® & News

Nearby

Air Quality

  Air Quality AQ Index Pollutant
Not available.

Snow Depth

Station Depth Elevation

Earthquake Activity

City Distance Mag. Time & Date
Minimum magnitude displayed is 2.5.

Coastal Water Temperatures

Place Temperature

Stations

Nearby Weather Stations

Station Location Temp. Windchill Dew Point Humidity Wind Precip. Elev Updated Type